createdAt,value
2022-11-03T00:02:09.079Z,19.96
2022-11-03T00:07:30.754Z,19.94
2022-11-03T00:12:54.033Z,19.92
2022-11-03T00:18:15.667Z,19.90
2022-11-03T00:23:42.420Z,19.89
2022-11-03T00:29:09.930Z,19.87
2022-11-03T00:34:31.539Z,19.86
2022-11-03T00:39:53.150Z,19.83
2022-11-03T00:45:14.831Z,19.82
2022-11-03T00:50:36.488Z,19.81
2022-11-03T00:55:58.490Z,19.79
2022-11-03T01:01:28.869Z,19.79
2022-11-03T01:06:52.850Z,19.77
2022-11-03T01:12:19.015Z,19.76
2022-11-03T01:17:41.116Z,19.74
2022-11-03T01:23:02.925Z,19.74
2022-11-03T01:28:24.772Z,19.71
2022-11-03T01:33:47.578Z,19.70
2022-11-03T01:39:14.050Z,19.69
2022-11-03T01:44:37.537Z,19.67
2022-11-03T01:50:05.703Z,19.67
2022-11-03T01:55:32.536Z,19.65
2022-11-03T02:01:01.558Z,19.64
2022-11-03T02:06:27.727Z,19.64
2022-11-03T02:12:07.775Z,19.61
2022-11-03T02:17:31.595Z,19.61
2022-11-03T02:23:24.849Z,19.61
2022-11-03T02:28:46.889Z,19.58
2022-11-03T02:34:17.838Z,19.58
2022-11-03T02:39:46.483Z,19.58
2022-11-03T02:45:14.799Z,19.56
2022-11-03T02:50:39.093Z,19.56
2022-11-03T02:56:11.158Z,19.56
2022-11-03T03:01:48.504Z,19.55
2022-11-03T03:07:19.522Z,19.54
2022-11-03T03:12:47.023Z,19.53
2022-11-03T03:18:26.823Z,19.53
2022-11-03T03:24:13.249Z,19.52
2022-11-03T03:29:44.766Z,19.50
2022-11-03T03:35:10.077Z,19.50
2022-11-03T03:40:45.212Z,19.50
2022-11-03T03:46:10.455Z,19.47
2022-11-03T03:51:32.813Z,19.45
2022-11-03T03:57:03.026Z,19.45
2022-11-03T04:02:24.765Z,19.43
2022-11-03T04:07:49.023Z,19.42
2022-11-03T04:13:43.124Z,19.42
2022-11-03T04:19:23.157Z,19.42
2022-11-03T04:24:50.511Z,19.41
2022-11-03T04:30:20.703Z,19.42
2022-11-03T04:35:46.281Z,19.40
2022-11-03T04:41:13.175Z,19.36
2022-11-03T04:46:34.817Z,19.35
2022-11-03T04:51:56.474Z,19.36
2022-11-03T04:57:18.425Z,19.35
2022-11-03T05:02:40.112Z,19.35
2022-11-03T05:08:01.852Z,19.34
2022-11-03T05:13:25.512Z,19.35
2022-11-03T05:18:49.845Z,19.33
2022-11-03T05:29:38.976Z,19.34
2022-11-03T05:35:01.393Z,19.32
2022-11-03T05:40:26.131Z,19.33
2022-11-03T05:45:55.732Z,19.33
2022-11-03T05:51:24.388Z,19.32
2022-11-03T05:56:46.015Z,19.30
2022-11-03T06:02:28.891Z,19.30
2022-11-03T06:07:53.365Z,19.29
2022-11-03T06:13:19.932Z,19.30
2022-11-03T06:18:41.646Z,19.33
2022-11-03T06:24:03.308Z,19.36
2022-11-03T06:29:25.220Z,19.35
2022-11-03T06:34:50.354Z,19.37
2022-11-03T06:40:11.978Z,19.35
2022-11-03T06:45:33.691Z,19.35
2022-11-03T06:50:56.927Z,19.35
2022-11-03T06:56:22.730Z,19.34
2022-11-03T07:01:48.711Z,19.33
2022-11-03T07:07:10.517Z,19.32
2022-11-03T07:12:32.185Z,19.32
2022-11-03T07:17:54.613Z,19.30
2022-11-03T07:23:20.660Z,19.30
2022-11-03T07:28:42.519Z,19.29
2022-11-03T07:34:11.201Z,19.27
2022-11-03T07:39:37.484Z,19.26
2022-11-03T07:44:59.254Z,19.24
2022-11-03T07:50:21.230Z,19.23
2022-11-03T07:55:45.783Z,19.24
2022-11-03T08:01:37.900Z,19.23
2022-11-03T08:06:59.745Z,19.22
2022-11-03T08:12:21.953Z,19.22
2022-11-03T08:17:43.591Z,19.22
2022-11-03T08:23:24.598Z,19.21
2022-11-03T08:28:47.238Z,19.22
2022-11-03T08:34:09.139Z,19.22
2022-11-03T08:39:31.541Z,19.22
2022-11-03T08:44:53.129Z,19.22
2022-11-03T08:50:14.873Z,19.21
2022-11-03T08:55:36.539Z,19.22
2022-11-03T09:00:58.420Z,19.21
2022-11-03T09:06:20.072Z,19.21
2022-11-03T09:11:42.126Z,19.21
2022-11-03T09:22:45.310Z,19.20
2022-11-03T09:28:07.369Z,19.19
2022-11-03T09:33:29.288Z,19.18
2022-11-03T09:38:51.232Z,19.17
2022-11-03T09:44:13.099Z,19.16
2022-11-03T09:49:36.333Z,19.17
2022-11-03T09:54:59.839Z,19.16
2022-11-03T10:00:24.128Z,19.17
2022-11-03T10:05:46.540Z,19.17
2022-11-03T10:11:09.466Z,19.18
2022-11-03T10:16:31.165Z,19.17
2022-11-03T10:21:53.076Z,19.18
2022-11-03T10:27:23.342Z,19.20
2022-11-03T10:32:45.040Z,19.19
2022-11-03T10:38:27.465Z,19.21
2022-11-03T10:44:06.010Z,19.22
2022-11-03T10:49:30.480Z,19.19
2022-11-03T10:54:55.825Z,19.20
2022-11-03T11:00:18.181Z,19.19
2022-11-03T11:05:47.073Z,19.21
2022-11-03T11:11:08.781Z,19.18
2022-11-03T11:16:50.985Z,19.19
2022-11-03T11:22:14.021Z,19.18
2022-11-03T11:27:41.502Z,19.19
2022-11-03T11:33:22.336Z,19.19
2022-11-03T11:38:49.792Z,19.19
2022-11-03T11:44:39.511Z,19.20
2022-11-03T11:50:13.551Z,19.20
2022-11-03T11:55:38.648Z,19.20
2022-11-03T12:01:03.729Z,19.19
2022-11-03T12:06:37.081Z,19.21
2022-11-03T12:12:07.976Z,19.19
2022-11-03T12:17:30.356Z,19.20
2022-11-03T12:22:52.035Z,19.19
2022-11-03T12:28:30.851Z,19.22
2022-11-03T12:33:52.563Z,19.20
2022-11-03T12:39:14.250Z,19.20
2022-11-03T12:44:38.741Z,19.19
2022-11-03T12:50:04.635Z,19.19
2022-11-03T12:55:29.210Z,19.18
2022-11-03T13:00:54.971Z,19.16
2022-11-03T13:06:18.085Z,19.16
2022-11-03T13:11:58.559Z,19.17
2022-11-03T13:17:20.213Z,19.15
2022-11-03T13:22:42.167Z,19.15
2022-11-03T13:28:04.207Z,19.12
2022-11-03T13:33:25.993Z,19.11
2022-11-03T13:38:47.699Z,19.11
2022-11-03T13:44:09.427Z,19.10
2022-11-03T14:00:54.526Z,19.07
2022-11-03T14:06:16.228Z,19.06
2022-11-03T14:11:56.198Z,19.06
2022-11-03T14:17:17.969Z,19.04
2022-11-03T14:22:40.770Z,19.04
2022-11-03T14:28:02.560Z,19.03
2022-11-03T14:33:24.213Z,19.04
2022-11-03T14:38:49.906Z,19.03
2022-11-03T14:44:12.272Z,19.03
2022-11-03T14:49:35.081Z,19.04
2022-11-03T14:54:56.792Z,19.03
2022-11-03T15:00:18.727Z,19.02
2022-11-03T15:05:46.220Z,19.01
2022-11-03T15:11:10.046Z,19.01
2022-11-03T15:16:32.040Z,18.99
2022-11-03T15:21:53.680Z,19.00
2022-11-03T15:27:15.340Z,18.99
2022-11-03T15:32:37.083Z,18.99
2022-11-03T15:37:59.213Z,18.98
2022-11-03T15:43:20.973Z,18.97
2022-11-03T15:48:43.230Z,18.96
2022-11-03T15:54:04.901Z,18.95
2022-11-03T15:59:26.519Z,18.94
2022-11-03T16:04:48.738Z,18.95
2022-11-03T16:10:10.545Z,18.95
2022-11-03T16:15:32.343Z,18.93
2022-11-03T16:20:54.177Z,18.95
2022-11-03T16:26:16.018Z,18.95
2022-11-03T16:31:37.759Z,18.97
2022-11-03T16:37:00.856Z,19.04
2022-11-03T16:42:22.498Z,19.07
2022-11-03T16:47:44.962Z,19.09
2022-11-03T16:53:06.809Z,19.08
2022-11-03T16:58:28.569Z,19.08
2022-11-03T17:03:51.889Z,19.07
2022-11-03T17:09:13.551Z,19.06
2022-11-03T17:14:36.329Z,19.05
2022-11-03T17:19:58.098Z,19.04
2022-11-03T17:25:19.828Z,19.03
2022-11-03T17:30:41.519Z,19.02
2022-11-03T17:36:03.261Z,19.01
2022-11-03T17:41:24.925Z,19.00
2022-11-03T17:46:46.561Z,19.00
2022-11-03T17:52:29.127Z,19.00
2022-11-03T17:57:50.872Z,18.99
2022-11-03T18:03:16.158Z,18.99
2022-11-03T18:08:37.802Z,19.02
2022-11-03T18:14:00.873Z,19.11
2022-11-03T18:19:23.008Z,19.21
2022-11-03T18:24:44.753Z,19.28
2022-11-03T18:30:07.561Z,19.33
2022-11-03T18:35:33.345Z,19.36
2022-11-03T18:40:55.330Z,19.42
2022-11-03T18:46:17.030Z,19.62
2022-11-03T18:51:39.848Z,19.87
2022-11-03T18:57:02.122Z,20.05
2022-11-03T19:02:28.465Z,20.14
2022-11-03T19:07:50.757Z,20.17
2022-11-03T19:13:18.971Z,20.18
2022-11-03T19:18:42.027Z,20.16
2022-11-03T19:24:04.713Z,20.13
2022-11-03T19:29:31.069Z,20.09
2022-11-03T19:35:02.254Z,20.06
2022-11-03T19:40:23.942Z,20.01
2022-11-03T19:45:45.795Z,19.97
2022-11-03T19:51:07.734Z,19.95
2022-11-03T19:56:29.474Z,19.91
2022-11-03T20:01:51.232Z,19.96
2022-11-03T20:07:15.716Z,20.04
2022-11-03T20:12:37.355Z,20.14
2022-11-03T20:17:59.017Z,20.29
2022-11-03T20:23:26.373Z,20.42
2022-11-03T20:28:48.319Z,20.53
2022-11-03T20:34:14.076Z,20.65
2022-11-03T20:39:35.817Z,20.72
2022-11-03T20:44:57.453Z,20.80
2022-11-03T20:50:20.813Z,20.84
2022-11-03T20:55:43.176Z,20.81
2022-11-03T21:01:11.080Z,20.77
2022-11-03T21:06:32.999Z,20.73
2022-11-03T21:11:55.182Z,20.68
2022-11-03T21:17:35.357Z,20.65
2022-11-03T21:22:56.997Z,20.59
2022-11-03T21:28:20.246Z,20.52
2022-11-03T21:33:41.983Z,20.43
2022-11-03T21:39:04.536Z,20.35
2022-11-03T21:44:26.344Z,20.27
2022-11-03T21:49:48.892Z,20.19
2022-11-03T21:55:10.759Z,20.13
2022-11-03T22:00:33.090Z,20.07
2022-11-03T22:06:00.008Z,20.03
2022-11-03T22:11:21.653Z,19.98
2022-11-03T22:16:44.798Z,19.95
2022-11-03T22:22:30.265Z,19.94
2022-11-03T22:27:51.913Z,19.87
2022-11-03T22:33:13.599Z,19.85
2022-11-03T22:38:55.515Z,19.82
2022-11-03T22:44:35.942Z,19.79
2022-11-03T22:49:57.667Z,19.75
2022-11-03T22:55:19.338Z,19.73
2022-11-03T23:00:41.117Z,19.68
2022-11-03T23:06:05.926Z,19.66
2022-11-03T23:11:32.557Z,19.63
2022-11-03T23:16:54.228Z,19.62
2022-11-03T23:22:15.877Z,19.61
2022-11-03T23:27:37.523Z,19.57
2022-11-03T23:33:00.616Z,19.54
2022-11-03T23:38:22.249Z,19.53
2022-11-03T23:43:44.977Z,19.51
2022-11-03T23:49:07.276Z,19.50
2022-11-03T23:54:29.185Z,19.49
2022-11-03T23:59:50.849Z,19.47
